createdAt,value
2018-11-21T00:00:11.420Z,20.3
2018-11-21T00:01:00.874Z,20.3
2018-11-21T00:01:52.344Z,20.3
2018-11-21T00:02:40.793Z,20.3
2018-11-21T00:03:31.896Z,20.3
2018-11-21T00:04:22.317Z,20.2
2018-11-21T00:05:11.085Z,20.2
2018-11-21T00:06:01.487Z,20.1
2018-11-21T00:06:52.406Z,20.1
2018-11-21T00:25:08.879Z,19.9
2018-11-21T00:25:59.645Z,20
2018-11-21T00:26:50.427Z,20
2018-11-21T00:27:38.525Z,20.1
2018-11-21T00:28:28.489Z,20.1
2018-11-21T00:29:18.637Z,20.2
2018-11-21T00:30:10.211Z,20.2
2018-11-21T00:31:00.162Z,20.3
2018-11-21T00:31:49.912Z,20.3
2018-11-21T00:32:38.042Z,20.3
2018-11-21T00:33:29.024Z,20.3
2018-11-21T00:34:20.074Z,20.2
2018-11-21T00:35:11.575Z,20.2
2018-11-21T00:35:59.586Z,20.1
2018-11-21T00:36:50.452Z,20.1
2018-11-21T00:37:39.299Z,20.1
2018-11-21T00:38:30.634Z,20.1
2018-11-21T00:39:19.029Z,20
2018-11-21T00:40:10.776Z,19.9
2018-11-21T00:41:00.290Z,19.9
2018-11-21T00:41:50.674Z,19.9
2018-11-21T00:42:46.350Z,19.8
2018-11-21T00:43:30.394Z,19.8
2018-11-21T00:44:20.750Z,19.7
2018-11-21T00:45:10.339Z,19.6
2018-11-21T00:46:01.000Z,19.6
2018-11-21T00:46:49.417Z,19.6
2018-11-21T00:47:41.128Z,19.5
2018-11-21T00:48:30.944Z,19.4
2018-11-21T00:49:19.971Z,19.4
2018-11-21T00:50:11.298Z,19.4
2018-11-21T00:51:00.625Z,19.3
2018-11-21T00:51:50.846Z,19.3
2018-11-21T00:52:40.250Z,19.2
2018-11-21T00:53:30.521Z,19.3
2018-11-21T00:54:20.785Z,19.6
2018-11-21T00:55:10.723Z,19.9
2018-11-21T00:56:00.252Z,20
2018-11-21T00:56:51.261Z,20.1
2018-11-21T00:57:40.852Z,20.1
2018-11-21T00:58:32.065Z,20.2
2018-11-21T00:59:21.232Z,20.3
2018-11-21T01:00:11.472Z,20.3
2018-11-21T01:01:01.365Z,20.3
2018-11-21T01:01:51.375Z,20.3
2018-11-21T01:02:41.262Z,20.3
2018-11-21T01:03:30.975Z,20.3
2018-11-21T01:04:22.392Z,20.2
2018-11-21T01:05:12.612Z,20.1
2018-11-21T01:06:02.417Z,20.1
2018-11-21T01:06:51.944Z,20
2018-11-21T01:07:42.857Z,19.9
2018-11-21T01:08:32.674Z,19.9
2018-11-21T01:09:22.390Z,19.9
2018-11-21T01:10:11.630Z,19.8
2018-11-21T01:11:01.947Z,19.8
2018-11-21T01:11:52.722Z,19.8
2018-11-21T01:12:42.567Z,19.7
2018-11-21T01:13:33.030Z,19.7
2018-11-21T01:14:22.987Z,19.6
2018-11-21T01:15:13.950Z,19.6
2018-11-21T01:16:04.203Z,19.5
2018-11-21T01:16:52.572Z,19.5
2018-11-21T01:17:44.039Z,19.4
2018-11-21T01:18:34.181Z,19.4
2018-11-21T01:19:22.077Z,19.3
2018-11-21T01:20:13.806Z,19.3
2018-11-21T01:21:03.814Z,19.3
2018-11-21T01:21:52.453Z,19.2
2018-11-21T01:22:43.189Z,19.1
2018-11-21T01:23:34.259Z,19.1
2018-11-21T01:24:23.423Z,19.1
2018-11-21T01:25:13.616Z,19
2018-11-21T01:26:03.042Z,18.9
2018-11-21T01:26:54.281Z,18.9
2018-11-21T01:27:44.579Z,18.9
2018-11-21T01:28:32.790Z,18.8
2018-11-21T01:29:23.958Z,19.1
2018-11-21T01:30:12.627Z,19.6
2018-11-21T01:31:02.639Z,19.8
2018-11-21T01:31:54.211Z,19.9
2018-11-21T01:32:44.428Z,19.9
2018-11-21T01:33:34.355Z,20
2018-11-21T01:34:24.548Z,20.1
2018-11-21T01:35:13.380Z,20.1
2018-11-21T01:36:03.835Z,20.2
2018-11-21T01:36:54.377Z,20.2
2018-11-21T01:37:43.858Z,20.2
2018-11-21T01:38:34.088Z,20.2
2018-11-21T01:39:24.195Z,20.1
2018-11-21T01:40:14.175Z,20.1
2018-11-21T01:41:03.260Z,20.1
2018-11-21T01:41:54.444Z,20.1
2018-11-21T01:42:45.850Z,20.1
2018-11-21T01:43:34.197Z,20
2018-11-21T01:44:24.599Z,19.9
2018-11-21T01:45:14.293Z,19.9
2018-11-21T01:46:04.385Z,19.9
2018-11-21T01:46:55.377Z,19.8
2018-11-21T01:47:45.635Z,19.8
2018-11-21T01:48:35.035Z,19.8
2018-11-21T01:49:25.473Z,19.7
2018-11-21T01:50:16.063Z,19.6
2018-11-21T01:51:05.530Z,19.6
2018-11-21T01:51:55.627Z,19.5
2018-11-21T01:52:47.017Z,19.5
2018-11-21T01:53:37.178Z,19.4
2018-11-21T01:54:24.431Z,19.4
2018-11-21T01:55:16.149Z,19.3
2018-11-21T01:56:06.149Z,19.3
2018-11-21T01:56:56.789Z,19.3
2018-11-21T01:57:45.502Z,19.2
2018-11-21T01:58:35.481Z,19.2
2018-11-21T01:59:26.156Z,19.4
2018-11-21T02:00:15.492Z,19.9
2018-11-21T02:01:06.220Z,20
2018-11-21T02:01:56.900Z,20.1
2018-11-21T02:02:47.015Z,20.1
2018-11-21T02:03:37.558Z,20.2
2018-11-21T02:04:24.962Z,20.3
2018-11-21T02:05:16.274Z,20.3
2018-11-21T02:06:06.699Z,20.3
2018-11-21T02:06:56.532Z,20.3
2018-11-21T02:07:45.943Z,20.3
2018-11-21T02:08:36.381Z,20.3
2018-11-21T02:09:27.324Z,20.3
2018-11-21T02:10:16.221Z,20.3
2018-11-21T02:11:05.826Z,20.2
2018-11-21T02:11:55.784Z,20.1
2018-11-21T02:12:46.645Z,20.1
2018-11-21T02:13:36.955Z,20.1
2018-11-21T02:14:27.215Z,20.1
2018-11-21T02:15:16.563Z,20
2018-11-21T02:16:07.450Z,19.9
2018-11-21T02:16:58.419Z,19.9
2018-11-21T02:17:48.220Z,19.9
2018-11-21T02:18:37.038Z,19.8
2018-11-21T02:19:27.288Z,19.8
2018-11-21T02:20:16.835Z,19.7
2018-11-21T02:21:07.097Z,19.6
2018-11-21T02:21:58.455Z,19.6
2018-11-21T02:22:48.089Z,19.6
2018-11-21T02:23:38.687Z,19.5
2018-11-21T02:24:27.915Z,19.4
2018-11-21T02:25:18.813Z,19.4
2018-11-21T02:26:06.998Z,19.4
2018-11-21T02:26:58.033Z,19.3
2018-11-21T02:27:48.474Z,19.3
2018-11-21T02:28:37.002Z,19.4
2018-11-21T02:29:27.519Z,19.8
2018-11-21T02:30:17.576Z,20
2018-11-21T02:31:08.106Z,20.1
2018-11-21T02:31:58.806Z,20.1
2018-11-21T02:32:48.399Z,20.1
2018-11-21T02:33:38.989Z,20.3
2018-11-21T02:34:28.425Z,20.3
2018-11-21T02:35:18.745Z,20.3
2018-11-21T02:36:08.137Z,20.3
2018-11-21T02:36:58.725Z,20.3
2018-11-21T02:37:48.276Z,20.3
2018-11-21T02:38:39.609Z,20.3
2018-11-21T02:39:29.447Z,20.3
2018-11-21T02:40:18.672Z,20.3
2018-11-21T02:41:09.034Z,20.3
2018-11-21T02:41:58.999Z,20.2
2018-11-21T02:42:48.864Z,20.1
2018-11-21T02:43:39.319Z,20.1
2018-11-21T02:44:29.225Z,20.1
2018-11-21T02:45:18.123Z,20.1
2018-11-21T02:46:07.996Z,20
2018-11-21T02:46:59.509Z,19.9
2018-11-21T02:47:49.394Z,19.9
2018-11-21T02:48:39.343Z,19.8
2018-11-21T02:49:30.003Z,19.8
2018-11-21T02:50:19.964Z,19.8
2018-11-21T02:51:09.391Z,19.7
2018-11-21T02:51:59.595Z,19.6
2018-11-21T02:52:50.198Z,19.6
2018-11-21T02:53:40.310Z,19.6
2018-11-21T02:54:29.918Z,19.5
2018-11-21T02:55:19.785Z,19.4
2018-11-21T02:56:10.171Z,19.4
2018-11-21T02:57:00.463Z,19.3
2018-11-21T02:57:50.535Z,19.3
2018-11-21T02:58:40.088Z,19.4
2018-11-21T02:59:29.816Z,19.9
2018-11-21T03:00:19.533Z,20.1
2018-11-21T03:01:09.738Z,20.1
2018-11-21T03:01:59.753Z,20.1
2018-11-21T03:02:50.617Z,20.3
2018-11-21T03:03:41.004Z,20.3
2018-11-21T03:04:31.601Z,20.4
2018-11-21T03:05:20.618Z,20.4
2018-11-21T03:06:11.090Z,20.4
2018-11-21T03:06:59.692Z,20.4
2018-11-21T03:07:50.472Z,20.4
2018-11-21T03:08:40.555Z,20.4
2018-11-21T03:09:30.957Z,20.3
2018-11-21T03:10:20.500Z,20.3
2018-11-21T03:11:11.452Z,20.3
2018-11-21T03:12:01.340Z,20.2
2018-11-21T03:12:50.472Z,20.2
2018-11-21T03:13:40.812Z,20.1
2018-11-21T03:14:31.281Z,20.1
2018-11-21T03:15:21.289Z,20.1
2018-11-21T03:16:10.663Z,20
2018-11-21T03:17:02.011Z,20
2018-11-21T03:17:50.854Z,19.9
2018-11-21T03:18:41.436Z,19.9
2018-11-21T03:19:31.875Z,19.8
2018-11-21T03:20:21.881Z,19.8
2018-11-21T03:21:11.614Z,19.7
2018-11-21T03:22:02.014Z,19.7
2018-11-21T03:22:51.761Z,19.6
2018-11-21T03:23:41.774Z,19.6
2018-11-21T03:24:32.161Z,19.5
2018-11-21T03:25:20.785Z,19.4
2018-11-21T03:26:12.219Z,19.4
2018-11-21T03:27:01.349Z,19.3
2018-11-21T03:27:52.137Z,19.3
2018-11-21T03:28:41.816Z,19.4
2018-11-21T03:29:31.870Z,19.9
2018-11-21T03:30:23.076Z,20.1
2018-11-21T03:31:12.582Z,20.2
2018-11-21T03:32:02.949Z,20.2
2018-11-21T03:32:52.176Z,20.3
2018-11-21T03:33:43.318Z,20.3
2018-11-21T03:34:32.232Z,20.4
2018-11-21T03:35:22.150Z,20.4
2018-11-21T03:36:12.208Z,20.4
2018-11-21T03:37:02.584Z,20.4
2018-11-21T03:37:53.662Z,20.4
2018-11-21T03:38:43.315Z,20.4
2018-11-21T03:39:32.385Z,20.3
2018-11-21T03:40:23.220Z,20.3
2018-11-21T03:41:13.245Z,20.3
2018-11-21T03:42:03.115Z,20.3
2018-11-21T03:42:53.105Z,20.2
2018-11-21T03:43:43.682Z,20.2
2018-11-21T03:44:32.554Z,20.1
2018-11-21T03:45:22.663Z,20.1
2018-11-21T03:46:12.800Z,20
2018-11-21T03:47:03.132Z,20
2018-11-21T03:47:53.880Z,19.9
2018-11-21T03:48:44.030Z,19.9
2018-11-21T03:49:33.595Z,19.8
2018-11-21T03:50:24.005Z,19.8
2018-11-21T03:51:13.593Z,19.7
2018-11-21T03:52:03.897Z,19.6
2018-11-21T03:52:53.863Z,19.6
2018-11-21T03:53:44.507Z,19.6
2018-11-21T03:54:33.117Z,19.5
2018-11-21T03:55:22.559Z,19.4
2018-11-21T03:56:12.489Z,19.4
2018-11-21T03:57:04.204Z,19.4
2018-11-21T03:57:53.972Z,19.3
2018-11-21T03:58:44.569Z,19.3
2018-11-21T03:59:33.430Z,19.5
2018-11-21T04:00:23.707Z,20
2018-11-21T04:01:14.194Z,20.1
2018-11-21T04:02:03.536Z,20.2
2018-11-21T04:02:54.834Z,20.3
2018-11-21T04:03:44.219Z,20.3
2018-11-21T04:04:34.446Z,20.4
2018-11-21T04:05:23.666Z,20.4
2018-11-21T04:06:14.513Z,20.4
2018-11-21T04:07:03.834Z,20.4
2018-11-21T04:07:54.706Z,20.4
2018-11-21T04:08:50.675Z,20.4
2018-11-21T04:09:34.705Z,20.4
2018-11-21T04:10:25.116Z,20.4
2018-11-21T04:11:14.345Z,20.3
2018-11-21T04:12:04.558Z,20.3
2018-11-21T04:12:55.905Z,20.3
2018-11-21T04:13:45.199Z,20.2
2018-11-21T04:14:35.883Z,20.2
2018-11-21T04:15:24.973Z,20.1
2018-11-21T04:16:14.831Z,20.1
2018-11-21T04:17:05.479Z,20.1
2018-11-21T04:17:55.649Z,20
2018-11-21T04:18:45.645Z,19.9
2018-11-21T04:19:35.156Z,19.9
2018-11-21T04:20:25.781Z,19.8
2018-11-21T04:21:16.863Z,19.8
2018-11-21T04:22:06.575Z,19.7
2018-11-21T04:22:55.668Z,19.7
2018-11-21T04:23:46.484Z,19.6
2018-11-21T04:24:36.858Z,19.6
2018-11-21T04:25:27.505Z,19.5
2018-11-21T04:26:15.567Z,19.4
2018-11-21T04:27:06.105Z,19.4
2018-11-21T04:27:56.842Z,19.4
2018-11-21T04:28:46.180Z,19.3
2018-11-21T04:29:36.145Z,19.5
2018-11-21T04:30:26.449Z,19.9
2018-11-21T04:31:16.025Z,20.1
2018-11-21T04:32:06.502Z,20.1
2018-11-21T04:32:56.425Z,20.2
2018-11-21T04:33:46.822Z,20.3
2018-11-21T04:34:37.190Z,20.3
2018-11-21T04:35:27.447Z,20.4
2018-11-21T04:36:16.387Z,20.4
2018-11-21T04:54:22.954Z,19.6
2018-11-21T04:55:12.836Z,19.6
2018-11-21T04:56:03.481Z,19.5
2018-11-21T04:56:52.193Z,19.4
2018-11-21T04:57:42.695Z,19.4
2018-11-21T04:58:34.093Z,19.4
2018-11-21T04:59:23.421Z,19.3
2018-11-21T05:00:12.278Z,19.5
2018-11-21T05:01:01.890Z,19.9
2018-11-21T05:01:53.720Z,20.3
2018-11-21T05:02:43.376Z,20.4
2018-11-21T05:03:33.677Z,20.4
2018-11-21T05:04:23.280Z,20.4
2018-11-21T05:05:12.292Z,20.6
2018-11-21T05:06:02.428Z,20.6
2018-11-21T05:06:52.916Z,20.6
2018-11-21T05:07:43.793Z,20.6
2018-11-21T05:08:32.895Z,20.6
2018-11-21T05:09:23.753Z,20.6
2018-11-21T05:10:15.295Z,20.6
2018-11-21T05:11:03.824Z,20.6
2018-11-21T05:11:54.035Z,20.6
2018-11-21T05:12:43.020Z,20.5
2018-11-21T05:13:33.857Z,20.4
2018-11-21T05:14:24.927Z,20.4
2018-11-21T05:15:13.979Z,20.4
2018-11-21T05:16:03.278Z,20.4
2018-11-21T05:16:53.807Z,20.3
2018-11-21T05:17:43.864Z,20.3
2018-11-21T05:18:34.046Z,20.2
2018-11-21T05:19:24.277Z,20.1
2018-11-21T05:20:14.259Z,20.1
2018-11-21T05:21:04.953Z,20
2018-11-21T05:21:54.121Z,19.9
2018-11-21T05:22:43.978Z,19.9
2018-11-21T05:23:34.962Z,19.9
2018-11-21T05:24:23.922Z,19.8
2018-11-21T05:25:15.842Z,19.8
2018-11-21T05:26:05.135Z,19.7
2018-11-21T05:26:55.199Z,19.7
2018-11-21T05:27:44.721Z,19.6
2018-11-21T05:28:34.751Z,19.6
2018-11-21T05:29:24.966Z,19.5
2018-11-21T05:30:14.579Z,19.4
2018-11-21T05:31:04.581Z,19.5
2018-11-21T05:31:55.676Z,19.8
2018-11-21T05:32:45.061Z,20.3
2018-11-21T05:33:34.696Z,20.4
2018-11-21T05:34:25.053Z,20.4
2018-11-21T05:35:16.325Z,20.5
2018-11-21T05:36:05.542Z,20.6
2018-11-21T05:36:55.821Z,20.6
2018-11-21T05:37:45.485Z,20.7
2018-11-21T05:38:35.778Z,20.7
2018-11-21T05:39:24.557Z,20.7
2018-11-21T05:40:15.841Z,20.7
2018-11-21T05:41:04.813Z,20.7
2018-11-21T05:41:56.052Z,20.6
2018-11-21T05:42:46.503Z,20.6
2018-11-21T05:43:35.530Z,20.6
2018-11-21T05:44:32.713Z,20.6
2018-11-21T05:45:16.432Z,20.5
2018-11-21T05:46:06.580Z,20.4
2018-11-21T05:46:59.755Z,20.4
2018-11-21T05:47:45.528Z,20.4
2018-11-21T05:48:36.057Z,20.3
2018-11-21T05:49:26.182Z,20.3
2018-11-21T05:50:17.032Z,20.2
2018-11-21T05:51:06.725Z,20.2
2018-11-21T05:51:57.077Z,20.1
2018-11-21T05:52:47.632Z,20.1
2018-11-21T05:53:35.652Z,20
2018-11-21T05:54:25.377Z,19.9
2018-11-21T05:55:17.219Z,19.9
2018-11-21T05:56:07.765Z,19.8
2018-11-21T05:56:56.559Z,19.8
2018-11-21T05:57:47.867Z,19.8
2018-11-21T05:58:37.067Z,19.7
2018-11-21T05:59:27.165Z,19.6
2018-11-21T06:00:17.402Z,19.6
2018-11-21T06:01:07.552Z,19.6
2018-11-21T06:01:58.206Z,19.5
2018-11-21T06:02:47.936Z,19.6
2018-11-21T06:03:37.617Z,20
2018-11-21T06:04:26.869Z,20.3
2018-11-21T06:05:17.015Z,20.3
2018-11-21T06:06:12.876Z,20.4
2018-11-21T06:06:57.584Z,20.4
2018-11-21T06:07:47.488Z,20.5
2018-11-21T06:08:38.434Z,20.6
2018-11-21T06:09:29.659Z,20.6
2018-11-21T06:10:16.766Z,20.6
2018-11-21T06:11:08.683Z,20.6
2018-11-21T06:12:05.291Z,20.6
2018-11-21T06:12:48.902Z,20.6
2018-11-21T06:13:38.983Z,20.5
2018-11-21T06:14:25.832Z,20.5
2018-11-21T06:15:17.793Z,20.4
2018-11-21T06:16:09.348Z,20.4
2018-11-21T06:16:58.371Z,20.4
2018-11-21T06:17:56.190Z,20.4
2018-11-21T06:18:36.998Z,20.3
2018-11-21T06:19:29.944Z,20.3
2018-11-21T06:20:18.718Z,20.2
2018-11-21T06:21:09.256Z,20.1
2018-11-21T06:21:58.510Z,20.1
2018-11-21T06:22:48.913Z,20.1
2018-11-21T06:23:38.795Z,20
2018-11-21T06:24:28.790Z,19.9
2018-11-21T06:25:19.286Z,19.9
2018-11-21T06:26:09.860Z,19.8
2018-11-21T06:26:59.138Z,19.8
2018-11-21T06:27:48.120Z,19.8
2018-11-21T06:28:40.018Z,19.7
2018-11-21T06:29:28.313Z,19.6
2018-11-21T06:30:18.083Z,19.6
2018-11-21T06:31:09.343Z,19.5
2018-11-21T06:31:59.704Z,19.5
2018-11-21T06:32:50.315Z,19.4
2018-11-21T06:33:39.817Z,19.4
2018-11-21T06:34:34.868Z,19.5
2018-11-21T06:35:20.407Z,19.9
2018-11-21T06:36:12.100Z,20.3
2018-11-21T06:37:01.643Z,20.4
2018-11-21T06:37:51.451Z,20.4
2018-11-21T06:38:41.445Z,20.4
2018-11-21T06:39:31.287Z,20.5
2018-11-21T06:40:20.728Z,20.6
2018-11-21T06:41:11.084Z,20.6
2018-11-21T06:42:01.735Z,20.6
2018-11-21T06:42:50.324Z,20.6
2018-11-21T06:43:41.529Z,20.6
2018-11-21T06:44:31.877Z,20.6
2018-11-21T06:45:21.366Z,20.6
2018-11-21T06:46:11.494Z,20.5
2018-11-21T06:47:02.271Z,20.5
2018-11-21T06:47:50.514Z,20.4
2018-11-21T06:48:41.959Z,20.4
2018-11-21T06:49:32.222Z,20.4
2018-11-21T06:50:22.263Z,20.3
2018-11-21T06:51:12.516Z,20.3
2018-11-21T06:52:01.794Z,20.2
2018-11-21T06:52:53.041Z,20.1
2018-11-21T06:53:42.029Z,20.1
2018-11-21T06:54:30.906Z,20.1
2018-11-21T06:55:22.064Z,20
2018-11-21T06:56:12.763Z,19.9
2018-11-21T06:57:03.048Z,19.9
2018-11-21T06:57:51.378Z,19.8
2018-11-21T06:58:42.298Z,19.8
2018-11-21T06:59:32.933Z,19.7
2018-11-21T07:00:22.743Z,19.7
2018-11-21T07:01:13.391Z,19.6
2018-11-21T07:02:01.688Z,19.6
2018-11-21T07:02:53.125Z,19.5
2018-11-21T07:03:42.723Z,19.5
2018-11-21T07:04:32.723Z,19.4
2018-11-21T07:05:23.377Z,19.4
2018-11-21T07:06:13.392Z,19.3
2018-11-21T07:07:03.655Z,19.4
2018-11-21T07:07:53.492Z,19.7
2018-11-21T07:08:42.700Z,20.2
2018-11-21T07:09:32.797Z,20.3
2018-11-21T07:10:24.012Z,20.4
2018-11-21T07:11:12.604Z,20.4
2018-11-21T07:12:03.510Z,20.5
2018-11-21T07:12:53.830Z,20.6
2018-11-21T07:13:43.354Z,20.6
2018-11-21T07:14:33.360Z,20.6
2018-11-21T07:15:24.290Z,20.6
2018-11-21T07:16:14.072Z,20.6
2018-11-21T07:17:03.900Z,20.6
2018-11-21T07:17:53.442Z,20.5
2018-11-21T07:18:43.755Z,20.4
2018-11-21T07:19:34.298Z,20.4
2018-11-21T07:20:23.825Z,20.3
2018-11-21T07:21:13.402Z,20.3
2018-11-21T07:22:03.656Z,20.2
2018-11-21T07:22:54.005Z,20.2
2018-11-21T07:23:45.375Z,20.1
2018-11-21T07:24:35.309Z,20.1
2018-11-21T07:25:24.246Z,20
2018-11-21T07:26:14.714Z,19.9
2018-11-21T07:27:03.661Z,19.9
2018-11-21T07:27:54.241Z,19.9
2018-11-21T07:28:44.622Z,19.9
2018-11-21T07:29:42.872Z,19.8
2018-11-21T07:30:24.461Z,19.8
2018-11-21T07:31:14.810Z,19.7
2018-11-21T07:32:05.424Z,19.6
2018-11-21T07:32:54.974Z,19.6
2018-11-21T07:33:51.483Z,19.5
2018-11-21T07:34:35.365Z,19.5
2018-11-21T07:35:27.846Z,19.4
2018-11-21T07:36:15.148Z,19.4
2018-11-21T07:37:05.187Z,19.3
2018-11-21T07:37:55.316Z,19.3
2018-11-21T07:38:45.377Z,19.3
2018-11-21T07:39:35.153Z,19.2
2018-11-21T07:40:23.906Z,19.1
2018-11-21T07:41:16.086Z,19.1
2018-11-21T07:42:05.363Z,19.1
2018-11-21T07:42:55.370Z,19
2018-11-21T07:43:45.783Z,18.9
2018-11-21T07:44:35.765Z,18.9
2018-11-21T07:45:27.168Z,18.9
2018-11-21T07:46:15.853Z,18.8
2018-11-21T07:47:06.240Z,18.8
2018-11-21T07:47:56.045Z,18.8
2018-11-21T07:49:36.148Z,18.6
2018-11-21T07:50:25.907Z,18.6
2018-11-21T07:51:15.683Z,18.6
2018-11-21T07:52:06.348Z,18.5
2018-11-21T07:52:55.835Z,18.5
2018-11-21T07:53:46.667Z,18.4
2018-11-21T07:54:36.462Z,18.4
2018-11-21T07:55:26.642Z,18.4
2018-11-21T07:56:15.717Z,18.3
2018-11-21T07:57:06.351Z,18.3
2018-11-21T07:57:56.668Z,18.3
2018-11-21T07:58:46.718Z,18.2
2018-11-21T07:59:36.777Z,18.1
2018-11-21T08:00:26.666Z,18.1
2018-11-21T08:01:16.932Z,18.1
2018-11-21T08:02:06.503Z,18.1
2018-11-21T08:02:56.790Z,18
2018-11-21T08:03:46.250Z,17.9
2018-11-21T08:04:36.900Z,17.9
2018-11-21T08:05:26.943Z,17.9
2018-11-21T08:06:16.418Z,17.9
2018-11-21T08:07:07.323Z,17.8
2018-11-21T08:07:57.102Z,18.2
2018-11-21T08:08:46.920Z,18.8
2018-11-21T08:09:37.484Z,19.4
2018-11-21T08:10:27.872Z,19.6
2018-11-21T08:11:18.167Z,19.7
2018-11-21T08:12:07.098Z,19.8
2018-11-21T08:12:57.340Z,19.9
2018-11-21T08:13:47.584Z,20.1
2018-11-21T08:14:37.067Z,20.1
2018-11-21T08:15:28.427Z,20.1
2018-11-21T08:16:17.417Z,20.1
2018-11-21T08:17:06.712Z,20.1
2018-11-21T08:17:57.577Z,20.1
2018-11-21T08:18:47.039Z,20.1
2018-11-21T08:19:37.829Z,20.1
2018-11-21T08:20:28.084Z,20.1
2018-11-21T08:21:17.846Z,20
2018-11-21T08:22:07.937Z,20
2018-11-21T08:22:57.889Z,19.9
2018-11-21T08:23:47.223Z,19.9
2018-11-21T08:24:37.557Z,19.9
2018-11-21T08:25:28.061Z,19.8
2018-11-21T08:26:18.201Z,19.8
2018-11-21T08:27:08.566Z,19.8
2018-11-21T08:27:57.486Z,19.6
2018-11-21T08:28:49.439Z,19.6
2018-11-21T08:29:38.744Z,19.6
2018-11-21T08:30:28.516Z,19.5
2018-11-21T08:31:19.084Z,19.4
2018-11-21T08:32:09.443Z,19.4
2018-11-21T08:32:58.359Z,19.4
2018-11-21T08:33:49.324Z,19.3
2018-11-21T08:34:38.433Z,19.3
2018-11-21T08:35:29.291Z,19.2
2018-11-21T08:36:18.265Z,19.1
2018-11-21T08:37:08.881Z,19.1
2018-11-21T08:37:59.469Z,19.3
2018-11-21T08:38:49.375Z,19.9
2018-11-21T08:39:39.135Z,20.1
2018-11-21T08:40:28.861Z,20.1
2018-11-21T08:41:19.739Z,20.1
2018-11-21T08:42:09.579Z,20.3
2018-11-21T09:08:49.158Z,19.1
2018-11-21T09:09:39.006Z,19.1
2018-11-21T09:11:19.083Z,18.9
2018-11-21T09:12:19.156Z,18.9
2018-11-21T09:12:59.166Z,18.9
2018-11-21T09:13:53.806Z,18.8
2018-11-21T09:14:39.010Z,18.8
2018-11-21T09:15:28.491Z,18.8
2018-11-21T09:16:19.180Z,19
2018-11-21T09:17:09.468Z,19.5
2018-11-21T09:17:59.211Z,19.8
2018-11-21T09:18:50.385Z,19.9
2018-11-21T09:19:39.368Z,19.9
2018-11-21T09:20:30.243Z,20
2018-11-21T09:21:19.495Z,20.1
2018-11-21T09:22:09.822Z,20.2
2018-11-21T09:22:59.618Z,20.3
2018-11-21T09:23:49.909Z,20.3
2018-11-21T09:24:39.989Z,20.3
2018-11-21T09:25:28.949Z,20.3
2018-11-21T09:26:20.070Z,20.2
2018-11-21T09:27:10.443Z,20.1
2018-11-21T09:27:59.006Z,20.1
2018-11-21T09:28:51.108Z,20
2018-11-21T09:29:40.888Z,19.9
2018-11-21T09:30:31.000Z,19.9
2018-11-21T09:31:20.688Z,19.9
2018-11-21T09:32:08.235Z,19.9
2018-11-21T09:32:59.460Z,19.8
2018-11-21T09:33:50.969Z,19.8
2018-11-21T09:34:40.938Z,19.8
2018-11-21T09:35:30.189Z,19.7
2018-11-21T09:36:20.254Z,19.6
2018-11-21T09:37:11.117Z,19.6
2018-11-21T09:38:01.189Z,19.6
2018-11-21T09:38:50.969Z,19.4
2018-11-21T09:39:41.177Z,19.4
2018-11-21T09:40:30.231Z,19.4
2018-11-21T09:41:20.897Z,19.3
2018-11-21T09:42:10.929Z,19.3
2018-11-21T09:43:00.964Z,19.3
2018-11-21T09:43:51.786Z,19.2
2018-11-21T09:44:41.051Z,19.1
2018-11-21T09:45:31.692Z,19.1
2018-11-21T09:46:26.789Z,19
2018-11-21T09:47:11.291Z,19
2018-11-21T09:48:01.951Z,18.9
2018-11-21T09:48:51.909Z,18.9
2018-11-21T09:49:41.508Z,18.8
2018-11-21T09:50:32.939Z,18.8
2018-11-21T09:51:21.919Z,18.8
2018-11-21T09:53:50.121Z,18.6
2018-11-21T09:54:41.806Z,18.6
2018-11-21T09:55:31.633Z,18.5
2018-11-21T09:56:21.680Z,18.5
2018-11-21T09:57:11.818Z,18.4
2018-11-21T09:58:02.376Z,18.5
2018-11-21T09:58:51.618Z,19
2018-11-21T09:59:42.010Z,19.5
2018-11-21T10:00:31.346Z,19.7
2018-11-21T10:01:22.056Z,19.8
2018-11-21T10:02:12.375Z,19.9
2018-11-21T10:03:02.156Z,20
2018-11-21T10:03:52.455Z,20.1
2018-11-21T10:04:42.557Z,20.1
2018-11-21T10:05:33.108Z,20.2
2018-11-21T10:06:22.130Z,20.2
2018-11-21T10:07:12.424Z,20.2
2018-11-21T10:08:02.479Z,20.2
2018-11-21T10:08:52.624Z,20.1
2018-11-21T10:09:42.842Z,20.1
2018-11-21T10:10:33.495Z,20
2018-11-21T10:11:22.754Z,19.9
2018-11-21T10:12:13.055Z,19.9
2018-11-21T10:13:03.440Z,19.9
2018-11-21T10:13:52.939Z,19.8
2018-11-21T10:14:42.477Z,19.8
2018-11-21T10:15:33.396Z,19.8
2018-11-21T10:16:23.349Z,19.7
2018-11-21T10:17:13.154Z,19.7
2018-11-21T10:18:03.432Z,19.6
2018-11-21T10:18:52.704Z,19.6
2018-11-21T10:19:43.665Z,19.5
2018-11-21T10:20:33.983Z,19.5
2018-11-21T10:21:23.449Z,19.4
2018-11-21T10:22:13.184Z,19.4
2018-11-21T10:23:02.956Z,19.3
2018-11-21T10:23:54.152Z,19.3
2018-11-21T10:24:44.217Z,19.2
2018-11-21T10:25:33.654Z,19.2
2018-11-21T10:26:24.304Z,19.1
2018-11-21T10:27:13.544Z,19.1
2018-11-21T10:28:04.133Z,19
2018-11-21T10:28:53.652Z,18.9
2018-11-21T10:29:44.775Z,18.9
2018-11-21T10:30:34.826Z,18.9
2018-11-21T10:31:23.554Z,18.8
2018-11-21T10:32:14.117Z,18.8
2018-11-21T10:33:04.705Z,18.8
2018-11-21T10:35:39.840Z,18.6
2018-11-21T10:36:24.081Z,18.6
2018-11-21T10:37:14.683Z,18.5
2018-11-21T10:38:04.628Z,18.5
2018-11-21T10:38:54.885Z,18.4
2018-11-21T10:39:45.275Z,18.4
2018-11-21T10:40:35.053Z,18.3
2018-11-21T10:41:25.790Z,18.3
2018-11-21T10:42:15.397Z,18.3
2018-11-21T10:43:05.440Z,18.3
2018-11-21T10:43:54.890Z,18.2
2018-11-21T10:44:45.260Z,18.1
2018-11-21T10:45:36.087Z,18.1
2018-11-21T10:46:25.077Z,18.1
2018-11-21T10:47:15.384Z,18
2018-11-21T10:48:05.187Z,17.9
2018-11-21T10:48:54.977Z,17.9
2018-11-21T10:49:45.861Z,17.9
2018-11-21T10:50:36.327Z,17.9
2018-11-21T10:51:26.039Z,17.8
2018-11-21T10:52:15.767Z,17.8
2018-11-21T10:53:06.105Z,17.8
2018-11-21T10:53:55.383Z,17.7
2018-11-21T10:54:45.926Z,17.7
2018-11-21T10:55:36.196Z,17.6
2018-11-21T10:56:26.039Z,17.6
2018-11-21T10:57:16.119Z,17.6
2018-11-21T10:58:06.234Z,17.6
2018-11-21T10:58:56.224Z,17.5
2018-11-21T10:59:46.024Z,17.5
2018-11-21T11:00:36.467Z,17.4
2018-11-21T11:01:25.930Z,17.4
2018-11-21T11:02:16.755Z,17.4
2018-11-21T11:03:07.084Z,17.3
2018-11-21T11:03:58.384Z,17.3
2018-11-21T11:04:47.208Z,17.3
2018-11-21T11:05:35.883Z,17.3
2018-11-21T11:06:26.191Z,17.2
2018-11-21T11:07:16.808Z,17.2
2018-11-21T11:08:06.893Z,17.9
2018-11-21T11:09:47.336Z,18.9
2018-11-21T11:10:37.913Z,19
2018-11-21T11:11:26.822Z,19.3
2018-11-21T11:12:17.512Z,19.4
2018-11-21T11:13:06.650Z,19.6
2018-11-21T11:13:57.837Z,19.7
2018-11-21T11:14:47.841Z,19.7
2018-11-21T11:15:38.178Z,19.8
2018-11-21T11:16:27.983Z,19.8
2018-11-21T11:17:18.368Z,19.8
2018-11-21T11:18:09.350Z,19.8
2018-11-21T11:18:58.427Z,19.7
2018-11-21T11:19:48.198Z,19.6
2018-11-21T11:20:38.267Z,19.6
2018-11-21T11:21:28.653Z,19.6
2018-11-21T11:22:17.905Z,19.5
2018-11-21T11:23:08.188Z,19.5
2018-11-21T11:23:57.960Z,19.4
2018-11-21T11:24:48.590Z,19.4
2018-11-21T11:25:37.505Z,19.4
2018-11-21T11:26:29.287Z,19.4
2018-11-21T11:27:18.234Z,19.3
2018-11-21T11:28:08.882Z,19.3
2018-11-21T11:28:58.605Z,19.2
2018-11-21T11:29:46.307Z,19.1
2018-11-21T11:30:37.500Z,19.1
2018-11-21T11:31:27.679Z,19.1
2018-11-21T11:32:19.125Z,19
2018-11-21T11:33:06.905Z,18.9
2018-11-21T11:33:56.221Z,18.9
2018-11-21T11:34:46.538Z,18.9
2018-11-21T11:35:37.611Z,18.8
2018-11-21T11:36:27.971Z,18.8
2018-11-21T11:38:57.383Z,18.6
2018-11-21T11:39:48.018Z,18.6
2018-11-21T11:40:38.286Z,18.6
2018-11-21T11:41:28.483Z,18.5
2018-11-21T11:42:17.968Z,18.4
2018-11-21T11:43:08.323Z,18.4
2018-11-21T11:43:57.983Z,18.4
2018-11-21T11:44:47.931Z,18.3
2018-11-21T11:45:38.378Z,18.3
2018-11-21T11:46:28.620Z,18.4
2018-11-21T11:47:19.238Z,19
2018-11-21T11:48:07.529Z,19.3
2018-11-21T11:48:57.353Z,19.4
2018-11-21T11:49:48.311Z,19.4
2018-11-21T11:50:38.517Z,19.7
2018-11-21T11:51:28.103Z,19.8
2018-11-21T11:52:18.660Z,19.9
2018-11-21T11:53:08.220Z,19.9
2018-11-21T11:53:57.675Z,19.9
2018-11-21T11:54:48.093Z,20
2018-11-21T11:55:38.591Z,20
2018-11-21T11:56:29.365Z,20
2018-11-21T11:57:19.231Z,19.9
2018-11-21T11:58:10.235Z,19.8
2018-11-21T11:58:58.697Z,19.8
2018-11-21T11:59:49.507Z,19.8
2018-11-21T12:00:39.028Z,19.8
2018-11-21T12:01:29.812Z,19.6
2018-11-21T12:02:20.708Z,19.6
2018-11-21T12:03:09.299Z,19.6
2018-11-21T12:04:05.783Z,19.5
2018-11-21T12:04:49.290Z,19.5
2018-11-21T12:05:37.874Z,19.5
2018-11-21T12:06:29.649Z,19.4
2018-11-21T12:07:19.506Z,19.4
2018-11-21T12:08:11.101Z,19.3
2018-11-21T12:09:01.302Z,19.3
2018-11-21T12:09:50.056Z,19.2
2018-11-21T12:10:39.734Z,19.1
2018-11-21T12:11:30.156Z,19.1
2018-11-21T12:12:22.376Z,19.1
2018-11-21T12:13:09.834Z,19
2018-11-21T12:14:01.206Z,18.9
2018-11-21T12:14:50.291Z,18.9
2018-11-21T12:15:40.913Z,18.9
2018-11-21T12:16:30.263Z,18.8